KLWS/LWS METAR and TAF weather

Enter ICAO airport designator
Station Type Date Time Source
KLWS METAR 2022/12/04 04:56 UTC NOAA

KLWS 040456Z 08012KT 10SM CLR M03/M08 A3024 RMK AO2 SLP257 T10281078


Station Type Date Time Source
KLWS Decoded METAR 2022/12/04 04:56 UTC NOAA

LEWISTON NEZ PERCE CO AIRPORT , ID, United States (KLWS) 46-22N 117-01W 438M
Dec 03, 2022 - 11:56 PM EST / 2022.12.04 0456 UTC
Wind: from the E (080 degrees) at 14 MPH (12 KT):0
Visibility: 10 mile(s):0
Sky conditions: clear
Temperature: 27.0 F (-2.8 C)
Windchill: 15 F (-9 C):1
Dew Point: 18.0 F (-7.8 C)
Relative Humidity: 68%
Pressure (altimeter): 30.24 in. Hg (1024 hPa)
ob: KLWS 040456Z 08012KT 10SM CLR M03/M08 A3024 RMK AO2 SLP257 T10281078
cycle: 5

Station Type Date Time Source
KLWS TAF 2022/12/03 18:22 UTC NOAA

TAF KLWS 031720Z 0318/0418 VRB04KT P6SM FEW100 BKN150
FM040600 09005KT P6SM FEW250
FM041000 07006KT P6SM BKN100 OVC200

Example: see airport list